createdAt,value
2022-11-10T00:02:20.567Z,83.87
2022-11-10T00:05:06.147Z,84.04
2022-11-10T00:07:51.624Z,84.27
2022-11-10T00:10:57.133Z,84.25
2022-11-10T00:14:01.231Z,84.33
2022-11-10T00:17:01.902Z,84.22
2022-11-10T00:19:47.625Z,84.00
2022-11-10T00:22:37.869Z,84.16
2022-11-10T00:25:24.473Z,84.28
2022-11-10T00:28:10.791Z,84.92
2022-11-10T00:30:56.535Z,84.82
2022-11-10T00:33:43.920Z,84.83
2022-11-10T00:36:29.904Z,84.35
2022-11-10T00:39:15.663Z,84.37
2022-11-10T00:42:01.008Z,84.36
2022-11-10T00:44:46.845Z,84.54
2022-11-10T00:47:32.589Z,84.61
2022-11-10T00:50:18.116Z,84.75
2022-11-10T00:53:04.062Z,84.67
2022-11-10T00:55:49.761Z,84.38
2022-11-10T00:58:35.274Z,84.41
2022-11-10T01:01:22.381Z,84.35
2022-11-10T01:04:08.093Z,84.05
2022-11-10T01:06:53.244Z,84.17
2022-11-10T01:09:38.763Z,84.17
2022-11-10T01:12:24.413Z,84.29
2022-11-10T01:15:10.193Z,84.09
2022-11-10T01:17:56.608Z,83.69
2022-11-10T01:20:42.155Z,83.77
2022-11-10T01:23:27.777Z,83.82
2022-11-10T01:26:13.822Z,83.87
2022-11-10T01:28:58.964Z,83.84
2022-11-10T01:31:44.413Z,84.00
2022-11-10T01:34:29.802Z,84.03
2022-11-10T01:37:15.129Z,83.83
2022-11-10T01:40:00.730Z,83.76
2022-11-10T01:42:55.520Z,84.08
2022-11-10T01:45:45.378Z,84.08
2022-11-10T01:48:59.155Z,84.04
2022-11-10T01:51:54.926Z,84.17
2022-11-10T01:54:50.044Z,83.78
2022-11-10T01:57:37.154Z,83.34
2022-11-10T02:00:23.505Z,83.45
2022-11-10T02:03:41.690Z,83.40
2022-11-10T02:06:31.585Z,82.69
2022-11-10T02:09:17.758Z,82.34
2022-11-10T02:12:03.220Z,82.65
2022-11-10T02:14:48.974Z,82.42
2022-11-10T02:17:34.674Z,82.57
2022-11-10T02:20:21.579Z,81.85
2022-11-10T02:23:12.935Z,82.08
2022-11-10T02:25:58.800Z,81.90
2022-11-10T02:28:43.843Z,81.96
2022-11-10T02:31:29.325Z,82.07
2022-11-10T02:34:15.032Z,82.20
2022-11-10T02:37:00.512Z,82.10
2022-11-10T02:39:45.789Z,82.48
2022-11-10T02:42:31.119Z,82.29
2022-11-10T02:45:16.556Z,82.50
2022-11-10T02:48:01.938Z,82.64
2022-11-10T02:50:47.536Z,82.58
2022-11-10T02:53:32.894Z,82.74
2022-11-10T02:56:18.325Z,82.85
2022-11-10T02:59:04.924Z,82.88
2022-11-10T03:01:49.998Z,83.19
2022-11-10T03:04:35.750Z,83.31
2022-11-10T03:07:21.187Z,83.41
2022-11-10T03:10:07.223Z,83.36
2022-11-10T03:13:00.245Z,83.50
2022-11-10T03:15:47.997Z,83.52
2022-11-10T03:18:33.371Z,83.52
2022-11-10T03:21:18.719Z,83.04
2022-11-10T03:24:04.617Z,82.99
2022-11-10T03:26:50.124Z,83.17
2022-11-10T03:29:35.556Z,83.02
2022-11-10T03:32:20.822Z,83.02
2022-11-10T03:35:06.548Z,82.74
2022-11-10T03:37:51.952Z,83.02
2022-11-10T03:40:57.000Z,82.70
2022-11-10T03:43:42.292Z,82.92
2022-11-10T03:46:27.658Z,82.67
2022-11-10T03:49:12.897Z,82.66
2022-11-10T03:51:58.249Z,82.58
2022-11-10T03:54:43.658Z,82.75
2022-11-10T03:57:29.158Z,82.86
2022-11-10T04:00:14.999Z,82.96
2022-11-10T04:03:00.395Z,82.69
2022-11-10T04:06:04.084Z,82.70
2022-11-10T04:09:01.235Z,83.12
2022-11-10T04:12:05.243Z,82.74
2022-11-10T04:15:09.704Z,82.71
2022-11-10T04:17:55.362Z,82.42
2022-11-10T04:20:40.962Z,82.58
2022-11-10T04:23:34.961Z,82.79
2022-11-10T04:26:29.519Z,82.94
2022-11-10T04:29:19.489Z,82.75
2022-11-10T04:32:04.807Z,82.83
2022-11-10T04:34:50.505Z,82.72
2022-11-10T04:37:35.788Z,82.41
2022-11-10T04:40:21.609Z,82.35
2022-11-10T04:43:06.919Z,82.23
2022-11-10T04:45:52.647Z,82.44
2022-11-10T04:48:38.180Z,82.99
2022-11-10T04:51:28.700Z,83.11
2022-11-10T04:54:14.003Z,83.06
2022-11-10T04:56:59.287Z,83.52
2022-11-10T04:59:44.726Z,83.46
2022-11-10T05:02:30.131Z,83.65
2022-11-10T05:05:15.581Z,83.27
2022-11-10T05:08:01.724Z,82.91
2022-11-10T05:10:47.207Z,82.96
2022-11-10T05:13:32.956Z,82.92
2022-11-10T05:16:18.097Z,82.68
2022-11-10T05:19:04.122Z,82.66
2022-11-10T05:21:49.606Z,82.62
2022-11-10T05:24:34.747Z,82.62
2022-11-10T05:27:20.145Z,82.60
2022-11-10T05:30:06.226Z,82.43
2022-11-10T05:32:51.460Z,82.39
2022-11-10T05:35:37.177Z,82.61
2022-11-10T05:38:22.537Z,82.15
2022-11-10T05:41:07.984Z,82.06
2022-11-10T05:43:53.297Z,82.05
2022-11-10T05:46:38.686Z,81.94
2022-11-10T05:49:24.151Z,81.95
2022-11-10T05:52:09.443Z,82.13
2022-11-10T05:54:55.566Z,82.01
2022-11-10T05:57:45.421Z,81.87
2022-11-10T06:00:31.848Z,81.81
2022-11-10T06:03:20.235Z,81.80
2022-11-10T06:06:05.855Z,81.77
2022-11-10T06:08:52.120Z,81.74
2022-11-10T06:11:37.491Z,81.79
2022-11-10T06:14:22.574Z,81.69
2022-11-10T06:17:07.902Z,81.66
2022-11-10T06:19:53.606Z,81.67
2022-11-10T06:22:39.174Z,81.46
2022-11-10T06:25:24.547Z,81.71
2022-11-10T06:28:10.922Z,81.82
2022-11-10T06:30:59.116Z,81.62
2022-11-10T06:33:44.708Z,81.33
2022-11-10T06:36:30.070Z,81.33
2022-11-10T06:39:15.430Z,81.31
2022-11-10T06:42:01.051Z,80.89
2022-11-10T06:44:46.275Z,81.06
2022-11-10T06:47:32.164Z,80.93
2022-11-10T06:50:17.645Z,80.91
2022-11-10T06:53:03.389Z,80.73
2022-11-10T06:55:48.802Z,81.06
2022-11-10T06:58:34.147Z,81.01
2022-11-10T07:01:22.615Z,80.98
2022-11-10T07:04:23.567Z,80.91
2022-11-10T07:07:09.150Z,80.54
2022-11-10T07:09:54.644Z,80.66
2022-11-10T07:12:40.108Z,80.86
2022-11-10T07:15:25.454Z,80.93
2022-11-10T07:18:11.078Z,81.22
2022-11-10T07:20:56.913Z,81.18
2022-11-10T07:23:42.351Z,80.96
2022-11-10T07:26:28.328Z,80.78
2022-11-10T07:29:13.413Z,81.04
2022-11-10T07:31:58.786Z,80.98
2022-11-10T07:34:44.063Z,81.04
2022-11-10T07:37:29.516Z,80.72
2022-11-10T07:40:14.797Z,80.86
2022-11-10T07:43:01.053Z,80.57
2022-11-10T07:45:46.659Z,80.38
2022-11-10T07:48:31.914Z,80.67
2022-11-10T07:51:17.946Z,80.71
2022-11-10T07:54:03.344Z,80.30
2022-11-10T07:56:49.537Z,80.41
2022-11-10T07:59:35.085Z,80.36
2022-11-10T08:02:20.400Z,80.44
2022-11-10T08:05:06.334Z,80.79
2022-11-10T08:07:53.119Z,80.87
2022-11-10T08:10:40.147Z,80.75
2022-11-10T08:13:25.827Z,80.66
2022-11-10T08:16:11.267Z,80.93
2022-11-10T08:18:56.649Z,80.87
2022-11-10T08:21:41.991Z,80.67
2022-11-10T08:24:27.371Z,80.55
2022-11-10T08:27:12.762Z,80.55
2022-11-10T08:29:58.116Z,80.20
2022-11-10T08:32:43.419Z,80.04
2022-11-10T08:35:31.110Z,79.90
2022-11-10T08:38:22.336Z,79.96
2022-11-10T08:41:08.520Z,80.17
2022-11-10T08:43:53.830Z,80.27
2022-11-10T08:46:42.377Z,80.32
2022-11-10T08:49:27.332Z,79.53
2022-11-10T08:52:14.198Z,79.82
2022-11-10T08:54:59.571Z,79.42
2022-11-10T08:57:44.935Z,79.70
2022-11-10T09:00:32.351Z,79.76
2022-11-10T09:03:22.886Z,79.35
2022-11-10T09:06:08.615Z,79.50
2022-11-10T09:08:54.278Z,79.46
2022-11-10T09:11:39.620Z,79.69
2022-11-10T09:14:24.919Z,79.56
2022-11-10T09:17:10.146Z,79.28
2022-11-10T09:19:55.730Z,79.09
2022-11-10T09:22:41.381Z,78.91
2022-11-10T09:25:26.885Z,78.30
2022-11-10T09:28:14.045Z,78.27
2022-11-10T09:30:59.932Z,77.51
2022-11-10T09:33:45.466Z,77.72
2022-11-10T09:36:30.907Z,77.80
2022-11-10T09:39:16.318Z,77.77
2022-11-10T09:42:01.850Z,78.02
2022-11-10T09:44:58.158Z,77.94
2022-11-10T09:48:09.081Z,77.74
2022-11-10T09:50:58.369Z,76.96
2022-11-10T09:53:50.472Z,77.07
2022-11-10T09:56:38.063Z,77.22
2022-11-10T09:59:35.001Z,76.67
2022-11-10T10:02:38.226Z,76.78
2022-11-10T10:05:29.573Z,77.15
2022-11-10T10:08:24.542Z,76.93
2022-11-10T10:11:38.625Z,76.67
2022-11-10T10:14:38.799Z,76.39
2022-11-10T10:17:40.805Z,76.29
2022-11-10T10:20:42.360Z,76.25
2022-11-10T10:24:07.192Z,77.01
2022-11-10T10:26:50.720Z,76.72
2022-11-10T10:29:49.321Z,75.74
2022-11-10T10:32:35.208Z,76.05
2022-11-10T10:35:20.357Z,75.54
2022-11-10T10:38:22.309Z,74.99
2022-11-10T10:41:20.920Z,74.30
2022-11-10T10:44:17.704Z,73.95
2022-11-10T10:47:04.499Z,74.26
2022-11-10T10:49:49.753Z,74.45
2022-11-10T10:52:35.257Z,74.30
2022-11-10T10:55:20.640Z,74.04
2022-11-10T10:58:37.199Z,73.93
2022-11-10T11:01:32.886Z,74.09
2022-11-10T11:04:36.966Z,73.33
2022-11-10T11:07:25.102Z,73.87
2022-11-10T11:10:22.621Z,73.52
2022-11-10T11:13:20.928Z,73.80
2022-11-10T11:16:09.206Z,73.76
2022-11-10T11:18:54.286Z,74.17
2022-11-10T11:22:05.503Z,73.67
2022-11-10T11:25:06.288Z,73.58
2022-11-10T11:28:10.410Z,72.84
2022-11-10T11:30:58.609Z,73.50
2022-11-10T11:34:01.386Z,72.03
2022-11-10T11:37:23.991Z,72.64
2022-11-10T11:40:23.659Z,72.22
2022-11-10T11:43:27.987Z,72.11
2022-11-10T11:46:56.554Z,71.11
2022-11-10T11:50:03.650Z,71.67
2022-11-10T11:53:13.066Z,71.78
2022-11-10T11:56:06.657Z,71.09
2022-11-10T11:59:15.664Z,71.46
2022-11-10T12:02:31.680Z,71.03
2022-11-10T12:05:28.930Z,71.54
2022-11-10T12:08:31.104Z,71.66
2022-11-10T12:11:31.751Z,71.72
2022-11-10T12:14:31.035Z,71.23
2022-11-10T12:17:36.196Z,71.75
2022-11-10T12:20:59.187Z,71.71
2022-11-10T12:24:15.639Z,71.92
2022-11-10T12:27:20.377Z,71.85
2022-11-10T12:30:11.303Z,71.38
2022-11-10T12:33:00.382Z,70.26
2022-11-10T12:35:46.843Z,70.59
2022-11-10T12:38:48.111Z,71.06
2022-11-10T12:41:42.071Z,70.09
2022-11-10T12:44:43.626Z,69.69
2022-11-10T12:47:38.351Z,70.40
2022-11-10T12:50:32.513Z,70.05
2022-11-10T12:53:29.800Z,70.01
2022-11-10T12:56:23.672Z,69.64
2022-11-10T12:59:21.880Z,68.83
2022-11-10T13:02:25.188Z,69.79
2022-11-10T13:05:32.124Z,69.96
2022-11-10T13:08:44.097Z,69.55
2022-11-10T13:11:36.863Z,70.47
2022-11-10T13:14:28.998Z,69.97
2022-11-10T13:17:26.232Z,70.36
2022-11-10T13:20:40.243Z,69.73
2022-11-10T13:23:43.821Z,70.29
2022-11-10T13:26:56.037Z,68.87
2022-11-10T13:29:47.783Z,68.85
2022-11-10T13:32:34.455Z,69.59
2022-11-10T13:35:29.142Z,70.03
2022-11-10T13:38:46.889Z,69.30
2022-11-10T13:41:34.739Z,69.67
2022-11-10T13:44:33.754Z,69.42
2022-11-10T13:47:19.367Z,69.56
2022-11-10T13:50:42.207Z,68.49
2022-11-10T13:53:34.506Z,69.08
2022-11-10T13:56:35.209Z,68.80
2022-11-10T13:59:30.734Z,68.81
2022-11-10T14:02:39.302Z,68.35
2022-11-10T14:05:30.934Z,68.92
2022-11-10T14:08:20.717Z,69.39
2022-11-10T14:11:14.156Z,69.17
2022-11-10T14:14:13.317Z,69.45
2022-11-10T14:16:59.642Z,69.60
2022-11-10T14:19:46.112Z,69.54
2022-11-10T14:22:44.656Z,69.62
2022-11-10T14:25:41.249Z,70.03
2022-11-10T14:28:34.957Z,70.44
2022-11-10T14:31:25.861Z,70.53
2022-11-10T14:34:17.038Z,70.80
2022-11-10T14:37:04.933Z,71.02
2022-11-10T14:40:00.055Z,71.20
2022-11-10T14:42:47.504Z,70.89
2022-11-10T14:45:33.764Z,71.25
2022-11-10T14:48:23.124Z,71.21
2022-11-10T14:51:15.208Z,71.64
2022-11-10T14:54:02.955Z,71.73
2022-11-10T14:56:49.369Z,71.59
2022-11-10T14:59:34.950Z,71.51
2022-11-10T15:02:20.948Z,71.56
2022-11-10T15:05:09.649Z,71.39
2022-11-10T15:07:57.278Z,71.28
2022-11-10T15:10:42.563Z,71.22
2022-11-10T15:13:28.132Z,71.16
2022-11-10T15:16:32.049Z,71.56
2022-11-10T15:19:23.097Z,71.36
2022-11-10T15:22:32.621Z,71.54
2022-11-10T15:25:21.729Z,71.69
2022-11-10T15:28:13.290Z,71.95
2022-11-10T15:31:20.783Z,72.08
2022-11-10T15:34:06.460Z,72.08
2022-11-10T15:37:30.451Z,72.41
2022-11-10T15:40:33.300Z,72.55
2022-11-10T15:43:26.469Z,72.65
2022-11-10T15:46:18.058Z,72.63
2022-11-10T15:49:04.536Z,72.76
2022-11-10T15:51:52.309Z,73.05
2022-11-10T15:54:37.809Z,73.28
2022-11-10T15:57:23.093Z,73.13
2022-11-10T16:00:12.272Z,73.11
2022-11-10T16:02:57.550Z,73.14
2022-11-10T16:05:42.755Z,73.29
2022-11-10T16:08:30.696Z,73.44
2022-11-10T16:11:19.670Z,73.43
2022-11-10T16:14:05.862Z,73.30
2022-11-10T16:16:51.065Z,73.11
2022-11-10T16:19:36.295Z,72.85
2022-11-10T16:22:21.581Z,73.18
2022-11-10T16:25:07.332Z,73.36
2022-11-10T16:27:53.083Z,73.45
2022-11-10T16:30:38.404Z,73.32
2022-11-10T16:33:24.746Z,73.55
2022-11-10T16:36:39.031Z,73.62
2022-11-10T16:39:25.500Z,73.58
2022-11-10T16:42:11.002Z,73.75
2022-11-10T16:44:56.169Z,73.80
2022-11-10T16:47:43.115Z,74.12
2022-11-10T16:50:34.006Z,74.07
2022-11-10T16:53:23.410Z,73.92
2022-11-10T16:56:14.739Z,73.90
2022-11-10T16:59:00.245Z,73.83
2022-11-10T17:01:47.593Z,74.18
2022-11-10T17:04:32.778Z,73.86
2022-11-10T17:07:24.482Z,73.91
2022-11-10T17:10:18.169Z,73.83
2022-11-10T17:13:03.484Z,73.92
2022-11-10T17:15:50.585Z,73.79
2022-11-10T17:18:36.371Z,73.83
2022-11-10T17:21:22.558Z,74.01
2022-11-10T17:24:12.638Z,74.28
2022-11-10T17:26:58.079Z,74.22
2022-11-10T17:29:44.124Z,74.42
2022-11-10T17:32:58.021Z,74.36
2022-11-10T17:36:02.490Z,74.49
2022-11-10T17:38:47.839Z,74.22
2022-11-10T17:41:34.105Z,74.22
2022-11-10T17:44:19.636Z,74.82
2022-11-10T17:47:05.117Z,75.04
2022-11-10T17:49:52.044Z,75.09
2022-11-10T17:52:37.345Z,75.19
2022-11-10T17:55:34.005Z,75.38
2022-11-10T17:58:19.967Z,75.48
2022-11-10T18:01:18.692Z,75.40
2022-11-10T18:04:04.228Z,75.68
2022-11-10T18:06:49.894Z,75.56
2022-11-10T18:09:35.046Z,75.55
2022-11-10T18:12:25.304Z,75.68
2022-11-10T18:15:15.015Z,75.42
2022-11-10T18:18:01.277Z,75.34
2022-11-10T18:20:46.961Z,75.61
2022-11-10T18:23:32.886Z,75.78
2022-11-10T18:26:21.038Z,75.93
2022-11-10T18:29:06.851Z,75.92
2022-11-10T18:31:52.166Z,75.80
2022-11-10T18:34:37.611Z,75.92
2022-11-10T18:37:23.088Z,75.86
2022-11-10T18:40:09.023Z,75.97
2022-11-10T18:43:06.157Z,76.08
2022-11-10T18:45:54.692Z,76.09
2022-11-10T18:48:41.246Z,75.88
2022-11-10T18:51:26.663Z,75.70
2022-11-10T18:54:12.179Z,75.98
2022-11-10T18:56:57.784Z,75.85
2022-11-10T18:59:43.446Z,76.12
2022-11-10T19:02:28.716Z,76.14
2022-11-10T19:05:14.294Z,76.31
2022-11-10T19:07:59.894Z,76.48
2022-11-10T19:10:45.230Z,76.64
2022-11-10T19:13:30.670Z,76.74
2022-11-10T19:16:18.179Z,76.71
2022-11-10T19:19:03.550Z,76.67
2022-11-10T19:21:48.736Z,76.84
2022-11-10T19:24:53.882Z,76.90
2022-11-10T19:27:39.231Z,76.62
2022-11-10T19:30:25.835Z,76.80
2022-11-10T19:33:10.788Z,77.02
2022-11-10T19:35:56.809Z,76.89
2022-11-10T19:38:42.988Z,77.26
2022-11-10T19:41:30.885Z,76.97
2022-11-10T19:44:16.246Z,77.11
2022-11-10T19:47:01.573Z,77.33
2022-11-10T19:49:46.963Z,77.47
2022-11-10T19:52:32.162Z,77.72
2022-11-10T19:55:17.916Z,77.64
2022-11-10T19:58:06.082Z,77.62
2022-11-10T20:00:51.339Z,77.43
2022-11-10T20:03:37.226Z,77.44
2022-11-10T20:06:23.547Z,77.59
2022-11-10T20:09:08.973Z,77.22
2022-11-10T20:11:54.427Z,77.24
2022-11-10T20:14:39.926Z,77.19
2022-11-10T20:17:25.241Z,77.21
2022-11-10T20:20:10.846Z,77.36
2022-11-10T20:23:00.784Z,77.01
2022-11-10T20:25:46.175Z,77.23
2022-11-10T20:28:33.755Z,77.39
2022-11-10T20:31:24.791Z,77.19
2022-11-10T20:34:09.856Z,77.42
2022-11-10T20:36:55.576Z,77.41
2022-11-10T20:39:40.764Z,77.51
2022-11-10T20:42:26.091Z,77.66
2022-11-10T20:45:11.818Z,77.92
2022-11-10T20:47:57.877Z,78.03
2022-11-10T20:50:43.320Z,78.02
2022-11-10T20:53:29.626Z,78.10
2022-11-10T20:56:15.881Z,77.93
2022-11-10T20:59:01.233Z,78.17
2022-11-10T21:01:46.623Z,78.16
2022-11-10T21:04:32.507Z,78.58
2022-11-10T21:07:18.014Z,78.58
2022-11-10T21:10:03.983Z,78.38
2022-11-10T21:12:49.458Z,78.44
2022-11-10T21:15:38.237Z,78.93
2022-11-10T21:18:26.489Z,78.82
2022-11-10T21:21:21.336Z,79.11
2022-11-10T21:24:08.195Z,78.73
2022-11-10T21:26:54.216Z,78.95
2022-11-10T21:29:40.022Z,79.10
2022-11-10T21:32:25.448Z,78.90
2022-11-10T21:35:10.902Z,79.19
2022-11-10T21:37:56.279Z,79.23
2022-11-10T21:40:41.732Z,79.41
2022-11-10T21:43:27.044Z,79.10
2022-11-10T21:46:12.894Z,79.43
2022-11-10T21:49:03.116Z,79.35
2022-11-10T21:51:52.526Z,79.00
2022-11-10T21:54:38.337Z,79.03
2022-11-10T21:57:24.576Z,79.30
2022-11-10T22:00:11.649Z,79.29
2022-11-10T22:03:01.432Z,79.32
2022-11-10T22:05:47.241Z,79.35
2022-11-10T22:08:33.696Z,79.66
2022-11-10T22:11:39.284Z,79.56
2022-11-10T22:14:43.127Z,79.69
2022-11-10T22:17:46.824Z,79.73
2022-11-10T22:20:31.943Z,79.68
2022-11-10T22:23:17.212Z,79.63
2022-11-10T22:26:02.490Z,79.67
2022-11-10T22:28:48.320Z,79.51
2022-11-10T22:31:33.963Z,79.35
2022-11-10T22:34:20.007Z,79.24
2022-11-10T22:37:05.476Z,79.24
2022-11-10T22:40:09.525Z,79.08
2022-11-10T22:43:13.376Z,79.09
2022-11-10T22:45:58.959Z,78.92
2022-11-10T22:48:44.406Z,78.98
2022-11-10T22:51:31.212Z,78.87
2022-11-10T22:54:22.907Z,78.73
2022-11-10T22:57:08.208Z,78.66
2022-11-10T22:59:54.063Z,78.65
2022-11-10T23:02:40.124Z,78.58
2022-11-10T23:05:25.195Z,78.47
2022-11-10T23:08:11.516Z,78.40
2022-11-10T23:11:04.505Z,78.45
2022-11-10T23:13:50.710Z,78.46
2022-11-10T23:16:36.094Z,78.22
2022-11-10T23:19:21.534Z,78.26
2022-11-10T23:22:06.729Z,78.30
2022-11-10T23:24:56.917Z,78.13
2022-11-10T23:27:42.922Z,77.96
2022-11-10T23:30:28.158Z,77.84
2022-11-10T23:33:13.502Z,77.86
2022-11-10T23:35:59.467Z,77.60
2022-11-10T23:38:45.618Z,77.42
2022-11-10T23:41:31.297Z,77.52
2022-11-10T23:44:16.609Z,77.08
2022-11-10T23:47:01.951Z,77.10
2022-11-10T23:49:47.510Z,77.11
2022-11-10T23:52:33.070Z,77.27
2022-11-10T23:55:18.606Z,77.30
2022-11-10T23:58:04.422Z,77.36
